createdAt,value
2017-06-19T00:01:08.418Z,55.90
2017-06-19T00:03:36.723Z,56.30
2017-06-19T00:06:04.963Z,56.40
2017-06-19T00:08:34.080Z,57.00
2017-06-19T00:11:02.342Z,56.90
2017-06-19T00:13:30.619Z,57.40
2017-06-19T00:15:58.935Z,57.70
2017-06-19T00:18:27.181Z,58.00
2017-06-19T00:21:01.170Z,58.00
2017-06-19T00:23:35.840Z,58.00
2017-06-19T00:26:04.077Z,58.00
2017-06-19T00:28:32.313Z,57.80
2017-06-19T00:31:00.584Z,57.60
2017-06-19T00:33:28.832Z,57.30
2017-06-19T00:35:57.085Z,57.40
2017-06-19T00:38:25.320Z,57.10
2017-06-19T00:40:53.651Z,56.90
2017-06-19T00:43:21.923Z,57.00
2017-06-19T00:45:50.180Z,56.90
2017-06-19T00:48:18.414Z,57.00
2017-06-19T00:50:46.681Z,56.80
2017-06-19T00:53:15.526Z,56.80
2017-06-19T00:55:43.774Z,56.80
2017-06-19T00:58:12.781Z,56.50
2017-06-19T01:00:41.084Z,56.50
2017-06-19T01:03:09.364Z,56.30
2017-06-19T01:05:37.687Z,56.20
2017-06-19T01:08:06.013Z,56.20
2017-06-19T01:10:34.256Z,56.00
2017-06-19T01:13:03.381Z,55.90
2017-06-19T01:15:31.618Z,55.90
2017-06-19T01:18:00.650Z,55.90
2017-06-19T01:20:28.977Z,55.90
2017-06-19T01:22:58.072Z,56.20
2017-06-19T01:25:26.313Z,56.00
2017-06-19T01:27:54.575Z,55.90
2017-06-19T01:30:22.949Z,56.10
2017-06-19T01:32:51.216Z,56.00
2017-06-19T01:35:19.504Z,56.00
2017-06-19T01:37:47.756Z,55.90
2017-06-19T01:40:16.005Z,56.00
2017-06-19T01:42:45.150Z,56.30
2017-06-19T01:45:13.437Z,56.20
2017-06-19T01:47:41.686Z,56.30
2017-06-19T01:50:09.947Z,56.60
2017-06-19T01:52:38.997Z,57.80
2017-06-19T01:55:07.347Z,57.80
2017-06-19T01:57:35.586Z,57.60
2017-06-19T02:00:04.611Z,57.70
2017-06-19T02:02:32.883Z,57.60
2017-06-19T02:05:01.211Z,58.20
2017-06-19T02:07:29.497Z,58.60
2017-06-19T02:09:58.631Z,58.90
2017-06-19T02:12:26.861Z,58.90
2017-06-19T02:14:56.074Z,58.60
2017-06-19T02:17:25.176Z,58.70
2017-06-19T02:19:54.181Z,59.70
2017-06-19T02:22:22.502Z,58.90
2017-06-19T02:24:50.846Z,58.80
2017-06-19T02:27:19.146Z,58.70
2017-06-19T02:29:47.381Z,58.70
2017-06-19T02:32:15.630Z,58.60
2017-06-19T02:34:44.707Z,59.00
2017-06-19T02:37:13.149Z,58.60
2017-06-19T02:39:41.391Z,58.60
2017-06-19T02:42:10.423Z,58.50
2017-06-19T02:44:38.693Z,58.50
2017-06-19T02:47:06.948Z,58.60
2017-06-19T02:49:35.202Z,58.80
2017-06-19T02:52:04.212Z,58.80
2017-06-19T02:54:32.509Z,58.00
2017-06-19T02:57:00.884Z,58.00
2017-06-19T02:59:29.123Z,58.00
2017-06-19T03:01:58.125Z,58.00
2017-06-19T03:04:26.404Z,58.00
2017-06-19T03:06:54.645Z,57.90
2017-06-19T03:09:22.981Z,57.70
2017-06-19T03:11:51.221Z,57.50
2017-06-19T03:14:20.242Z,57.90
2017-06-19T03:16:48.634Z,57.90
2017-06-19T03:19:16.898Z,58.00
2017-06-19T03:21:45.134Z,58.10
2017-06-19T03:24:14.152Z,58.40
2017-06-19T03:26:42.445Z,58.20
2017-06-19T03:29:10.752Z,58.20
2017-06-19T03:31:39.101Z,58.20
2017-06-19T03:34:07.370Z,58.20
2017-06-19T03:36:35.603Z,58.30
2017-06-19T03:39:04.654Z,58.70
2017-06-19T03:41:33.000Z,58.40
2017-06-19T03:44:01.241Z,58.40
2017-06-19T03:46:29.480Z,58.50
2017-06-19T03:48:57.733Z,58.70
2017-06-19T03:51:26.224Z,58.80
2017-06-19T03:53:54.510Z,58.80
2017-06-19T03:56:22.893Z,59.10
2017-06-19T03:58:51.185Z,59.20
2017-06-19T04:01:19.493Z,59.20
2017-06-19T04:03:47.714Z,59.30
2017-06-19T04:06:15.957Z,59.40
2017-06-19T04:08:44.305Z,59.50
2017-06-19T04:11:12.539Z,59.60
2017-06-19T04:13:40.769Z,59.50
2017-06-19T04:16:09.774Z,59.80
2017-06-19T04:18:38.182Z,59.70
2017-06-19T04:21:06.429Z,59.90
2017-06-19T04:23:35.438Z,59.80
2017-06-19T04:26:03.752Z,59.80
2017-06-19T04:28:32.257Z,59.50
2017-06-19T04:31:00.461Z,59.30
2017-06-19T04:33:28.713Z,59.20
2017-06-19T04:35:57.731Z,59.20
2017-06-19T04:38:26.062Z,59.20
2017-06-19T04:40:54.311Z,58.90
2017-06-19T04:43:22.622Z,58.80
2017-06-19T04:45:50.920Z,58.70
2017-06-19T04:48:19.909Z,58.80
2017-06-19T04:50:49.040Z,58.00
2017-06-19T04:53:17.425Z,57.90
2017-06-19T04:55:45.745Z,57.60
2017-06-19T04:58:14.763Z,57.10
2017-06-19T05:00:43.125Z,56.50
2017-06-19T05:03:12.145Z,56.10
2017-06-19T05:05:40.393Z,55.90
2017-06-19T05:08:09.472Z,55.00
2017-06-19T05:10:37.801Z,54.80
2017-06-19T05:13:06.041Z,54.10
2017-06-19T05:15:35.173Z,51.70
2017-06-19T05:18:03.413Z,51.70
2017-06-19T05:20:32.454Z,50.00
2017-06-19T05:23:00.687Z,49.90
2017-06-19T05:25:29.689Z,49.30
2017-06-19T05:27:57.938Z,49.30
2017-06-19T05:30:27.082Z,49.00
2017-06-19T05:32:55.325Z,48.90
2017-06-19T05:35:23.633Z,48.90
2017-06-19T05:37:51.909Z,49.20
2017-06-19T05:40:20.141Z,49.50
2017-06-19T05:42:49.699Z,50.30
2017-06-19T05:45:17.935Z,50.20
2017-06-19T05:47:47.065Z,50.40
2017-06-19T05:50:15.324Z,50.30
2017-06-19T05:52:43.585Z,50.30
2017-06-19T05:55:11.917Z,50.10
2017-06-19T05:57:40.162Z,50.50
2017-06-19T06:00:08.437Z,50.50
2017-06-19T06:02:36.918Z,50.30
2017-06-19T06:05:05.193Z,50.50
2017-06-19T06:07:33.451Z,49.80
2017-06-19T06:10:01.683Z,48.60
2017-06-19T06:12:30.048Z,47.00
2017-06-19T06:14:59.129Z,45.50
2017-06-19T06:17:27.397Z,43.90
2017-06-19T06:19:55.774Z,42.10
2017-06-19T06:22:24.057Z,40.10
2017-06-19T06:24:52.305Z,38.10
2017-06-19T06:27:20.561Z,36.30
2017-06-19T06:29:48.868Z,34.80
2017-06-19T06:32:17.169Z,33.60
2017-06-19T06:34:45.601Z,31.60
2017-06-19T06:37:14.338Z,31.30
2017-06-19T06:39:42.558Z,30.30
2017-06-19T06:42:10.814Z,29.10
2017-06-19T06:44:39.133Z,28.90
2017-06-19T06:47:07.413Z,29.00
2017-06-19T06:49:35.717Z,28.30
2017-06-19T06:52:03.973Z,28.70
2017-06-19T06:54:32.233Z,29.20
2017-06-19T06:57:00.547Z,29.80
2017-06-19T06:59:28.892Z,31.10
2017-06-19T07:01:57.273Z,32.20
2017-06-19T07:04:25.648Z,33.40
2017-06-19T07:06:53.884Z,34.60
2017-06-19T07:09:22.889Z,35.50
2017-06-19T07:11:51.939Z,36.10
2017-06-19T07:14:20.175Z,36.10
2017-06-19T07:16:48.630Z,36.10
2017-06-19T07:19:17.658Z,37.10
2017-06-19T07:21:45.917Z,37.10
2017-06-19T07:24:14.211Z,37.70
2017-06-19T07:26:42.539Z,37.80
2017-06-19T07:29:10.781Z,38.00
2017-06-19T07:31:39.082Z,37.50
2017-06-19T07:34:07.331Z,37.90
2017-06-19T07:36:35.611Z,37.60
2017-06-19T07:39:03.873Z,36.60
2017-06-19T07:41:32.118Z,35.40
2017-06-19T07:44:00.359Z,35.10
2017-06-19T07:46:28.604Z,33.80
2017-06-19T07:48:56.841Z,33.40
2017-06-19T07:51:25.137Z,33.50
2017-06-19T07:53:53.373Z,33.70
2017-06-19T07:56:22.368Z,32.80
2017-06-19T07:58:51.386Z,33.30
2017-06-19T08:01:19.629Z,33.20
2017-06-19T08:03:48.668Z,32.10
2017-06-19T08:06:16.990Z,31.90
2017-06-19T08:08:45.234Z,33.20
2017-06-19T08:11:13.517Z,33.00
2017-06-19T08:13:41.788Z,32.50
2017-06-19T08:16:10.052Z,33.60
2017-06-19T08:18:38.298Z,32.80
2017-06-19T08:21:06.579Z,32.20
2017-06-19T08:23:40.574Z,32.20
2017-06-19T08:26:09.716Z,31.20
2017-06-19T08:28:37.957Z,31.20
2017-06-19T08:31:06.228Z,31.50
2017-06-19T08:33:34.470Z,31.50
2017-06-19T08:36:02.719Z,31.10
2017-06-19T08:38:30.973Z,30.70
2017-06-19T08:40:59.217Z,29.30
2017-06-19T08:43:28.258Z,29.90
2017-06-19T08:45:56.494Z,29.90
2017-06-19T08:48:24.772Z,29.30
2017-06-19T08:50:53.007Z,29.10
2017-06-19T08:53:21.252Z,29.20
2017-06-19T08:55:49.501Z,28.80
2017-06-19T08:58:17.796Z,28.40
2017-06-19T09:00:46.166Z,28.50
2017-06-19T09:03:14.403Z,28.50
2017-06-19T09:05:43.459Z,28.10
2017-06-19T09:08:11.693Z,28.00
2017-06-19T09:10:39.948Z,28.20
2017-06-19T09:13:08.193Z,27.20
2017-06-19T09:15:36.526Z,26.90
2017-06-19T09:18:04.772Z,26.30
2017-06-19T09:20:33.812Z,25.80
2017-06-19T09:23:02.075Z,26.10
2017-06-19T09:25:30.369Z,26.40
2017-06-19T09:27:58.698Z,25.50
2017-06-19T09:30:27.799Z,24.70
2017-06-19T09:32:56.793Z,24.90
2017-06-19T09:35:25.198Z,24.90
2017-06-19T09:37:53.438Z,24.40
2017-06-19T09:40:22.481Z,23.90
2017-06-19T09:42:50.848Z,23.90
2017-06-19T09:45:19.124Z,23.90
2017-06-19T09:47:47.460Z,22.70
2017-06-19T09:50:16.477Z,22.70
2017-06-19T09:52:44.772Z,22.50
2017-06-19T09:55:13.018Z,22.50
2017-06-19T09:57:41.293Z,22.30
2017-06-19T10:00:09.537Z,22.20
2017-06-19T10:02:37.781Z,21.30
2017-06-19T10:05:06.122Z,21.40
2017-06-19T10:07:34.433Z,20.80
2017-06-19T10:10:02.697Z,20.70
2017-06-19T10:12:31.027Z,19.90
2017-06-19T10:14:59.273Z,19.50
2017-06-19T10:17:27.525Z,19.00
2017-06-19T10:19:55.816Z,18.90
2017-06-19T10:22:24.172Z,19.10
2017-06-19T10:24:52.414Z,18.90
2017-06-19T10:27:21.425Z,18.00
2017-06-19T10:29:49.685Z,17.90
2017-06-19T10:32:18.039Z,17.50
2017-06-19T10:34:46.411Z,17.30
2017-06-19T10:37:14.661Z,17.10
2017-06-19T10:39:42.917Z,16.40
2017-06-19T10:42:11.181Z,16.20
2017-06-19T10:44:39.473Z,15.70
2017-06-19T10:47:07.749Z,15.10
2017-06-19T10:49:36.063Z,15.50
2017-06-19T10:52:04.345Z,15.60
2017-06-19T10:54:32.596Z,15.50
2017-06-19T10:57:00.855Z,15.40
2017-06-19T10:59:29.081Z,15.20
2017-06-19T11:01:58.125Z,14.90
2017-06-19T11:04:26.397Z,14.90
2017-06-19T11:06:54.759Z,15.10
2017-06-19T11:09:23.198Z,14.20
2017-06-19T11:11:51.409Z,14.80
2017-06-19T11:14:19.677Z,14.20
2017-06-19T11:16:48.013Z,13.60
2017-06-19T11:19:16.265Z,13.50
2017-06-19T11:21:44.505Z,12.10
2017-06-19T11:24:12.760Z,12.50
2017-06-19T11:26:41.783Z,13.50
2017-06-19T11:29:10.068Z,13.50
2017-06-19T11:31:38.306Z,13.30
2017-06-19T11:34:07.417Z,12.70
2017-06-19T11:36:35.725Z,12.60
2017-06-19T11:39:03.959Z,12.70
2017-06-19T11:41:32.397Z,13.20
2017-06-19T11:44:00.752Z,12.90
2017-06-19T11:46:29.042Z,13.30
2017-06-19T11:48:57.302Z,14.20
2017-06-19T11:51:25.545Z,14.50
2017-06-19T11:53:53.915Z,15.00
2017-06-19T11:56:22.232Z,15.60
2017-06-19T11:58:50.486Z,16.50
2017-06-19T12:01:18.745Z,17.40
2017-06-19T12:03:47.420Z,17.70
2017-06-19T12:06:15.637Z,18.90
2017-06-19T12:08:44.585Z,19.20
2017-06-19T12:11:13.624Z,20.40
2017-06-19T12:13:41.860Z,20.40
2017-06-19T12:16:10.277Z,21.70
2017-06-19T12:18:38.534Z,22.20
2017-06-19T12:21:06.808Z,23.30
2017-06-19T12:23:35.160Z,24.60
2017-06-19T12:26:04.261Z,24.90
2017-06-19T12:28:33.396Z,25.00
2017-06-19T12:31:01.712Z,25.00
2017-06-19T12:33:30.053Z,26.00
2017-06-19T12:35:58.306Z,25.60
2017-06-19T12:38:26.598Z,25.60
2017-06-19T12:40:54.977Z,25.70
2017-06-19T12:43:23.216Z,26.10
2017-06-19T12:45:51.493Z,26.10
2017-06-19T12:48:19.802Z,26.10
2017-06-19T12:50:48.039Z,26.00
2017-06-19T12:53:17.166Z,26.20
2017-06-19T12:55:45.465Z,26.20
2017-06-19T12:58:14.593Z,26.60
2017-06-19T13:00:42.809Z,26.50
2017-06-19T13:03:11.078Z,24.40
2017-06-19T13:05:39.396Z,24.00
2017-06-19T13:08:07.641Z,23.80
2017-06-19T13:10:35.896Z,23.80
2017-06-19T13:13:04.262Z,23.40
2017-06-19T13:15:33.273Z,24.10
2017-06-19T13:18:01.513Z,24.10
2017-06-19T13:20:30.557Z,25.30
2017-06-19T13:22:58.793Z,25.30
2017-06-19T13:25:27.810Z,26.40
2017-06-19T13:27:56.070Z,26.30
2017-06-19T13:30:25.077Z,26.70
2017-06-19T13:32:53.388Z,26.70
2017-06-19T13:35:22.236Z,26.90
2017-06-19T13:37:50.506Z,27.20
2017-06-19T13:40:19.378Z,26.90
2017-06-19T13:42:48.783Z,27.60
2017-06-19T13:45:17.348Z,27.70
2017-06-19T13:47:46.241Z,28.00
2017-06-19T13:50:14.793Z,27.70
2017-06-19T13:52:44.273Z,28.10
2017-06-19T13:55:13.216Z,28.00
2017-06-19T13:57:43.030Z,28.50
2017-06-19T14:00:12.287Z,28.60
2017-06-19T14:02:40.521Z,28.60
2017-06-19T14:05:09.536Z,27.90
2017-06-19T14:07:37.784Z,27.90
2017-06-19T14:10:08.987Z,28.10
2017-06-19T14:12:39.308Z,28.00
2017-06-19T14:17:42.639Z,28.00
2017-06-19T14:20:11.626Z,28.00
2017-06-19T14:22:39.885Z,28.50
2017-06-19T14:25:08.245Z,28.30
2017-06-19T14:27:36.517Z,28.50
2017-06-19T14:30:04.773Z,28.50
2017-06-19T14:32:33.103Z,28.70
2017-06-19T14:35:01.448Z,28.30
2017-06-19T14:37:29.685Z,28.40
2017-06-19T14:39:58.680Z,28.70
2017-06-19T14:42:27.813Z,28.50
2017-06-19T14:44:56.085Z,28.50
2017-06-19T14:47:24.573Z,28.60
2017-06-19T14:49:52.853Z,28.50
2017-06-19T14:52:21.139Z,28.80
2017-06-19T14:54:49.394Z,29.00
2017-06-19T14:57:17.699Z,29.40
2017-06-19T14:59:45.941Z,28.60
2017-06-19T15:02:14.220Z,29.10
2017-06-19T15:04:42.469Z,28.70
2017-06-19T15:07:10.801Z,28.90
2017-06-19T15:09:39.189Z,29.10
2017-06-19T15:12:07.433Z,29.50
2017-06-19T15:14:35.743Z,29.90
2017-06-19T15:17:04.010Z,29.10
2017-06-19T15:19:32.589Z,29.30
2017-06-19T15:22:06.575Z,29.60
2017-06-19T15:24:34.820Z,29.10
2017-06-19T15:27:03.064Z,29.00
2017-06-19T15:29:31.349Z,28.90
2017-06-19T15:32:00.448Z,29.20
2017-06-19T15:34:29.562Z,28.80
2017-06-19T15:36:57.897Z,28.70
2017-06-19T15:39:26.922Z,29.40
2017-06-19T15:41:55.236Z,28.90
2017-06-19T15:44:23.481Z,29.20
2017-06-19T15:46:51.876Z,29.30
2017-06-19T15:49:20.143Z,29.40
2017-06-19T15:51:48.393Z,29.20
2017-06-19T15:54:17.400Z,29.70
2017-06-19T15:56:45.684Z,29.70
2017-06-19T15:59:13.946Z,29.40
2017-06-19T16:01:42.953Z,29.50
2017-06-19T16:04:11.310Z,29.50
2017-06-19T16:06:40.314Z,29.40
2017-06-19T16:09:08.713Z,29.40
2017-06-19T16:11:36.952Z,29.40
2017-06-19T16:14:06.076Z,29.30
2017-06-19T16:16:34.381Z,29.10
2017-06-19T16:19:02.649Z,27.90
2017-06-19T16:21:30.905Z,27.10
2017-06-19T16:23:59.236Z,26.70
2017-06-19T16:26:27.493Z,27.30
2017-06-19T16:28:55.839Z,27.20
2017-06-19T16:31:24.213Z,26.60
2017-06-19T16:33:52.453Z,27.70
2017-06-19T16:36:21.500Z,28.10
2017-06-19T16:38:49.863Z,28.00
2017-06-19T16:41:18.129Z,26.90
2017-06-19T16:43:46.392Z,26.90
2017-06-19T16:46:14.708Z,26.90
2017-06-19T16:48:42.973Z,27.40
2017-06-19T16:51:11.274Z,26.90
2017-06-19T16:53:39.543Z,26.90
2017-06-19T16:56:07.897Z,26.90
2017-06-19T16:58:36.391Z,26.70
2017-06-19T17:01:04.757Z,27.40
2017-06-19T17:03:32.993Z,26.70
2017-06-19T17:06:01.282Z,26.20
2017-06-19T17:08:29.530Z,26.70
2017-06-19T17:10:58.542Z,26.60
2017-06-19T17:13:26.821Z,26.50
2017-06-19T17:15:55.845Z,26.90
2017-06-19T17:18:24.215Z,26.90
2017-06-19T17:20:52.465Z,27.50
2017-06-19T17:23:20.741Z,27.50
2017-06-19T17:25:49.073Z,27.30
2017-06-19T17:28:17.317Z,27.50
2017-06-19T17:30:46.075Z,26.90
2017-06-19T17:33:15.159Z,27.80
2017-06-19T17:35:44.194Z,27.90
2017-06-19T17:38:12.754Z,27.90
2017-06-19T17:40:41.047Z,28.30
2017-06-19T17:43:09.312Z,28.50
2017-06-19T17:45:38.301Z,29.00
2017-06-19T17:48:06.561Z,28.90
2017-06-19T17:50:34.803Z,28.80
2017-06-19T17:53:03.953Z,28.80
2017-06-19T17:55:32.188Z,28.90
2017-06-19T17:58:01.349Z,29.60
2017-06-19T18:00:29.681Z,29.50
2017-06-19T18:02:57.898Z,29.60
2017-06-19T18:05:26.149Z,29.40
2017-06-19T18:07:54.433Z,29.50
2017-06-19T18:10:22.705Z,29.20
2017-06-19T18:12:51.088Z,29.00
2017-06-19T18:15:19.469Z,28.90
2017-06-19T18:17:47.717Z,29.40
2017-06-19T18:20:15.966Z,30.00
2017-06-19T18:22:44.464Z,30.00
2017-06-19T18:25:13.454Z,30.70
2017-06-19T18:27:42.469Z,30.50
2017-06-19T18:30:10.749Z,30.50
2017-06-19T18:32:39.198Z,31.00
2017-06-19T18:35:07.457Z,31.20
2017-06-19T18:37:36.471Z,32.30
2017-06-19T18:40:05.593Z,31.70
2017-06-19T18:42:33.853Z,31.70
2017-06-19T18:45:02.156Z,31.90
2017-06-19T18:47:30.397Z,31.70
2017-06-19T18:49:58.639Z,31.60
2017-06-19T18:52:26.897Z,31.90
2017-06-19T18:54:55.136Z,32.70
2017-06-19T18:57:23.457Z,32.20
2017-06-19T18:59:51.684Z,32.20
2017-06-19T19:02:19.945Z,32.30
2017-06-19T19:04:48.961Z,32.50
2017-06-19T19:07:17.246Z,32.50
2017-06-19T19:09:45.622Z,32.70
2017-06-19T19:12:13.853Z,32.50
2017-06-19T19:14:42.984Z,33.30
2017-06-19T19:17:11.439Z,33.30
2017-06-19T19:19:40.561Z,35.20
2017-06-19T19:22:08.938Z,34.50
2017-06-19T19:24:37.173Z,35.40
2017-06-19T19:27:06.273Z,36.70
2017-06-19T19:29:35.279Z,36.70
2017-06-19T19:32:04.316Z,36.60
2017-06-19T19:34:32.684Z,38.70
2017-06-19T19:37:00.961Z,39.10
2017-06-19T19:39:29.246Z,39.00
2017-06-19T19:41:57.470Z,39.40
2017-06-19T19:44:26.598Z,39.50
2017-06-19T19:46:54.824Z,39.50
2017-06-19T19:49:23.865Z,39.60
2017-06-19T19:51:52.185Z,39.60
2017-06-19T19:54:20.769Z,39.60
2017-06-19T19:56:49.200Z,39.50
2017-06-19T19:59:17.536Z,38.90
2017-06-19T20:01:46.632Z,39.80
2017-06-19T20:04:15.736Z,39.20
2017-06-19T20:06:44.769Z,39.40
2017-06-19T20:09:13.040Z,39.30
2017-06-19T20:11:41.412Z,39.00
2017-06-19T20:14:09.657Z,39.30
2017-06-19T20:16:38.685Z,39.00
2017-06-19T20:19:06.970Z,38.90
2017-06-19T20:21:35.230Z,39.10
2017-06-19T20:24:03.558Z,39.10
2017-06-19T20:26:31.765Z,39.10
2017-06-19T20:29:00.115Z,39.20
2017-06-19T20:31:28.341Z,39.00
2017-06-19T20:33:56.697Z,39.10
2017-06-19T20:36:24.941Z,39.50
2017-06-19T20:38:53.988Z,40.10
2017-06-19T20:41:22.265Z,39.30
2017-06-19T20:43:51.424Z,39.80
2017-06-19T20:46:20.540Z,39.80
2017-06-19T20:48:48.777Z,39.80
2017-06-19T20:51:17.818Z,40.00
2017-06-19T20:53:46.051Z,40.00
2017-06-19T20:56:15.049Z,40.20
2017-06-19T20:58:43.310Z,40.20
2017-06-19T21:01:11.637Z,40.50
2017-06-19T21:03:39.928Z,40.00
2017-06-19T21:06:08.165Z,40.20
2017-06-19T21:08:36.475Z,40.10
2017-06-19T21:11:04.705Z,40.30
2017-06-19T21:13:32.949Z,40.40
2017-06-19T21:16:01.201Z,40.70
2017-06-19T21:18:29.443Z,40.70
2017-06-19T21:20:57.806Z,40.70
2017-06-19T21:23:26.813Z,41.00
2017-06-19T21:25:55.083Z,40.90
2017-06-19T21:28:23.401Z,40.80
2017-06-19T21:30:52.060Z,41.00
2017-06-19T21:33:20.315Z,41.20
2017-06-19T21:35:48.548Z,41.00
2017-06-19T21:38:17.041Z,41.20
2017-06-19T21:40:45.352Z,41.40
2017-06-19T21:43:13.632Z,41.60
2017-06-19T21:45:42.792Z,44.00
2017-06-19T21:48:11.016Z,43.90
2017-06-19T21:50:39.273Z,43.80
2017-06-19T21:53:07.528Z,44.40
2017-06-19T21:55:36.666Z,43.80
2017-06-19T21:58:04.991Z,43.70
2017-06-19T22:00:33.269Z,43.30
2017-06-19T22:03:02.313Z,42.80
2017-06-19T22:05:30.546Z,43.00
2017-06-19T22:07:59.587Z,45.10
2017-06-19T22:10:27.813Z,45.10
2017-06-19T22:12:56.950Z,45.30
2017-06-19T22:15:25.185Z,45.20
2017-06-19T22:17:54.218Z,44.40
2017-06-19T22:20:22.562Z,44.40
2017-06-19T22:23:03.433Z,44.80
2017-06-19T22:25:31.685Z,45.30
2017-06-19T22:28:00.018Z,44.90
2017-06-19T22:30:28.393Z,44.90
2017-06-19T22:32:56.704Z,45.40
2017-06-19T22:35:24.956Z,45.60
2017-06-19T22:37:53.218Z,45.60
2017-06-19T22:40:21.593Z,45.50
2017-06-19T22:42:49.914Z,45.10
2017-06-19T22:45:18.145Z,45.20
2017-06-19T22:47:46.531Z,45.30
2017-06-19T22:50:14.769Z,45.20
2017-06-19T22:52:43.807Z,45.30
2017-06-19T22:55:12.127Z,45.20
2017-06-19T22:57:40.355Z,45.30
2017-06-19T23:00:08.614Z,45.20
2017-06-19T23:02:36.898Z,45.50
2017-06-19T23:05:05.156Z,45.40
2017-06-19T23:07:33.380Z,45.50
2017-06-19T23:10:01.649Z,45.50
2017-06-19T23:12:29.998Z,45.50
2017-06-19T23:14:58.246Z,45.70
2017-06-19T23:17:26.549Z,45.70
2017-06-19T23:19:54.877Z,45.70
2017-06-19T23:22:24.068Z,45.80
2017-06-19T23:24:52.298Z,45.80
2017-06-19T23:27:20.560Z,46.10
2017-06-19T23:29:48.863Z,46.00
2017-06-19T23:32:17.106Z,46.20
2017-06-19T23:34:45.350Z,46.10
2017-06-19T23:37:13.600Z,46.30
2017-06-19T23:39:41.849Z,46.40
2017-06-19T23:42:10.093Z,46.60
2017-06-19T23:44:39.212Z,46.70
2017-06-19T23:47:07.454Z,46.70
2017-06-19T23:49:36.585Z,46.80
2017-06-19T23:52:04.865Z,46.70
2017-06-19T23:54:33.236Z,46.70
2017-06-19T23:57:01.517Z,46.80
2017-06-19T23:59:29.787Z,46.90
